createdAt,value
2023-02-07T00:02:30.996Z,31.30
2023-02-07T00:05:07.775Z,37.53
2023-02-07T00:08:01.730Z,35.93
2023-02-07T00:10:42.475Z,38.10
2023-02-07T00:13:28.694Z,36.23
2023-02-07T00:16:35.532Z,35.87
2023-02-07T00:19:19.334Z,37.63
2023-02-07T00:21:54.952Z,36.50
2023-02-07T00:24:28.908Z,35.00
2023-02-07T00:27:02.383Z,41.50
2023-02-07T00:29:39.238Z,36.30
2023-02-07T00:32:15.708Z,40.43
2023-02-07T00:34:53.949Z,39.97
2023-02-07T00:37:29.270Z,43.47
2023-02-07T00:40:03.784Z,40.13
2023-02-07T00:42:46.020Z,44.87
2023-02-07T00:45:25.629Z,38.63
2023-02-07T00:48:03.627Z,37.43
2023-02-07T00:50:39.801Z,40.23
2023-02-07T00:53:13.298Z,45.70
2023-02-07T00:55:55.718Z,42.97
2023-02-07T00:58:35.300Z,42.67
2023-02-07T01:01:12.438Z,50.53
2023-02-07T01:03:53.181Z,48.17
2023-02-07T01:06:27.993Z,44.70
2023-02-07T01:09:01.991Z,46.00
2023-02-07T01:11:38.009Z,46.80
2023-02-07T01:14:11.084Z,49.93
2023-02-07T01:16:51.960Z,50.20
2023-02-07T01:19:25.006Z,47.17
2023-02-07T01:21:59.589Z,49.53
2023-02-07T01:24:32.583Z,40.87
2023-02-07T01:27:05.681Z,48.27
2023-02-07T01:29:38.780Z,47.17
2023-02-07T01:32:15.591Z,43.70
2023-02-07T01:34:51.222Z,48.93
2023-02-07T01:37:24.439Z,45.43
2023-02-07T01:39:58.962Z,44.60
2023-02-07T01:42:32.022Z,49.47
2023-02-07T01:45:07.827Z,42.40
2023-02-07T01:47:42.746Z,48.53
2023-02-07T01:50:16.180Z,45.70
2023-02-07T01:52:50.833Z,39.73
2023-02-07T01:55:29.294Z,44.90
2023-02-07T01:58:02.958Z,47.17
2023-02-07T02:00:36.570Z,50.53
2023-02-07T02:03:10.976Z,50.80
2023-02-07T02:05:45.370Z,43.07
2023-02-07T02:08:19.017Z,49.47
2023-02-07T02:11:12.544Z,49.33
2023-02-07T02:13:53.711Z,44.67
2023-02-07T02:16:30.132Z,43.10
2023-02-07T02:19:18.958Z,45.90
2023-02-07T02:22:06.537Z,50.00
2023-02-07T02:25:03.117Z,46.17
2023-02-07T02:27:50.949Z,44.50
2023-02-07T02:30:36.645Z,48.67
2023-02-07T02:33:26.440Z,46.90
2023-02-07T02:36:03.660Z,48.13
2023-02-07T02:38:38.434Z,49.83
2023-02-07T02:41:16.078Z,48.97
2023-02-07T02:43:56.817Z,44.23
2023-02-07T02:46:39.534Z,43.23
2023-02-07T02:49:15.574Z,38.10
2023-02-07T02:51:50.732Z,47.27
2023-02-07T02:54:31.235Z,43.63
2023-02-07T02:57:31.999Z,43.90
2023-02-07T03:00:16.807Z,44.87
2023-02-07T03:02:55.086Z,45.67
2023-02-07T03:05:37.779Z,43.00
2023-02-07T03:08:17.742Z,47.97
2023-02-07T03:10:55.302Z,44.03
2023-02-07T03:13:30.167Z,43.37
2023-02-07T03:16:08.962Z,43.33
2023-02-07T03:18:49.460Z,41.50
2023-02-07T03:21:34.409Z,44.93
2023-02-07T03:24:09.982Z,46.00
2023-02-07T03:26:44.504Z,39.73
2023-02-07T03:29:18.767Z,43.97
2023-02-07T03:31:54.443Z,48.73
2023-02-07T03:34:33.907Z,40.33
2023-02-07T03:37:11.812Z,43.53
2023-02-07T03:39:47.000Z,42.87
2023-02-07T03:42:25.466Z,48.73
2023-02-07T03:44:59.654Z,44.60
2023-02-07T03:47:32.680Z,40.67
2023-02-07T03:50:05.923Z,47.03
2023-02-07T03:52:40.453Z,44.63
2023-02-07T03:55:13.921Z,40.00
2023-02-07T03:57:46.837Z,47.70
2023-02-07T04:00:30.396Z,50.37
2023-02-07T04:03:03.327Z,45.60
2023-02-07T04:05:40.907Z,42.50
2023-02-07T04:08:15.363Z,45.97
2023-02-07T04:10:57.817Z,44.27
2023-02-07T04:13:31.384Z,48.70
2023-02-07T04:16:06.053Z,45.30
2023-02-07T04:18:39.272Z,45.40
2023-02-07T04:21:12.863Z,50.33
2023-02-07T04:23:47.528Z,42.63
2023-02-07T04:26:23.481Z,49.67
2023-02-07T04:28:56.909Z,46.20
2023-02-07T04:31:30.454Z,49.23
2023-02-07T04:34:18.733Z,45.60
2023-02-07T04:37:04.184Z,46.73
2023-02-07T04:39:39.411Z,48.33
2023-02-07T04:42:15.736Z,47.03
2023-02-07T04:44:51.933Z,47.90
2023-02-07T04:47:27.420Z,45.20
2023-02-07T04:50:01.014Z,50.30
2023-02-07T04:52:36.108Z,44.37
2023-02-07T04:55:11.044Z,44.83
2023-02-07T04:57:44.545Z,44.37
2023-02-07T05:00:18.449Z,47.63
2023-02-07T05:02:53.865Z,43.13
2023-02-07T05:05:30.262Z,43.23
2023-02-07T05:08:10.124Z,47.40
2023-02-07T05:10:49.680Z,41.53
2023-02-07T05:13:23.093Z,43.10
2023-02-07T05:15:59.775Z,42.57
2023-02-07T05:18:33.597Z,38.53
2023-02-07T05:21:07.541Z,45.13
2023-02-07T05:23:41.263Z,49.17
2023-02-07T05:26:17.237Z,46.50
2023-02-07T05:28:54.878Z,40.67
2023-02-07T05:31:49.446Z,40.27
2023-02-07T05:34:21.915Z,44.10
2023-02-07T05:36:55.160Z,39.57
2023-02-07T05:39:28.266Z,42.63
2023-02-07T05:42:03.093Z,43.10
2023-02-07T05:44:36.709Z,38.57
2023-02-07T05:47:16.554Z,39.07
2023-02-07T05:49:49.940Z,37.77
2023-02-07T05:52:25.634Z,47.77
2023-02-07T05:54:59.248Z,38.83
2023-02-07T05:57:34.703Z,38.50
2023-02-07T06:00:08.555Z,40.43
2023-02-07T06:02:42.101Z,40.87
2023-02-07T06:05:16.464Z,34.87
2023-02-07T06:07:49.927Z,41.47
2023-02-07T06:10:26.640Z,39.80
2023-02-07T06:13:08.344Z,37.43
2023-02-07T06:15:44.901Z,37.40
2023-02-07T06:18:20.741Z,41.17
2023-02-07T06:20:56.386Z,43.83
2023-02-07T06:23:33.881Z,42.13
2023-02-07T06:26:07.373Z,44.67
2023-02-07T06:28:42.843Z,47.70
2023-02-07T06:31:19.834Z,40.57
2023-02-07T06:36:52.853Z,43.97
2023-02-07T06:39:56.006Z,50.03
2023-02-07T06:42:46.033Z,45.70
2023-02-07T06:45:36.769Z,45.70
2023-02-07T06:48:25.691Z,39.77
2023-02-07T06:51:04.171Z,42.30
2023-02-07T06:53:42.620Z,42.00
2023-02-07T06:56:35.654Z,42.53
2023-02-07T06:59:12.122Z,44.17
2023-02-07T07:01:55.394Z,52.47
2023-02-07T07:04:34.886Z,50.20
2023-02-07T07:07:08.109Z,47.50
2023-02-07T07:09:59.478Z,47.33
2023-02-07T07:12:41.296Z,55.53
2023-02-07T07:15:23.784Z,49.37
2023-02-07T07:18:02.391Z,57.70
2023-02-07T07:20:35.702Z,43.20
2023-02-07T07:23:09.249Z,49.40
2023-02-07T07:25:58.576Z,48.13
2023-02-07T07:28:44.412Z,49.83
2023-02-07T07:31:29.843Z,52.50
2023-02-07T07:34:14.332Z,44.73
2023-02-07T07:37:05.655Z,59.17
2023-02-07T07:40:15.725Z,49.37
2023-02-07T07:42:57.007Z,42.93
2023-02-07T07:45:38.552Z,35.43
2023-02-07T07:48:18.058Z,34.13
2023-02-07T07:51:12.413Z,40.43
2023-02-07T07:53:56.574Z,34.57
2023-02-07T07:56:38.972Z,38.53
2023-02-07T07:59:24.196Z,40.40
2023-02-07T08:02:00.713Z,35.83
2023-02-07T08:04:37.359Z,38.60
2023-02-07T08:07:15.664Z,37.73
2023-02-07T08:09:52.123Z,38.20
2023-02-07T08:12:25.312Z,36.83
2023-02-07T08:14:59.420Z,37.17
2023-02-07T08:17:32.887Z,40.37
2023-02-07T08:20:06.514Z,34.67
2023-02-07T08:22:44.758Z,41.37
2023-02-07T08:25:19.044Z,40.07
2023-02-07T08:27:52.268Z,36.33
2023-02-07T08:30:28.260Z,43.23
2023-02-07T08:36:07.712Z,33.50
2023-02-07T08:38:45.078Z,36.33
2023-02-07T08:41:19.393Z,38.13
2023-02-07T08:43:53.233Z,40.60
2023-02-07T08:46:32.513Z,32.00
2023-02-07T08:49:09.185Z,35.60
2023-02-07T08:51:46.340Z,33.10
2023-02-07T08:54:24.584Z,28.93
2023-02-07T08:56:57.830Z,29.33
2023-02-07T08:59:35.393Z,29.77
2023-02-07T09:02:12.884Z,31.80
2023-02-07T09:04:47.467Z,26.10
2023-02-07T09:07:33.616Z,27.60
2023-02-07T09:10:11.766Z,25.23
2023-02-07T09:12:45.133Z,31.23
2023-02-07T09:15:21.532Z,28.20
2023-02-07T09:17:55.049Z,26.90
2023-02-07T09:20:28.185Z,25.60
2023-02-07T09:23:18.809Z,30.27
2023-02-07T09:26:06.885Z,23.73
2023-02-07T09:28:43.835Z,28.50
2023-02-07T09:31:17.647Z,27.67
2023-02-07T09:33:56.265Z,27.03
2023-02-07T09:36:32.984Z,29.37
2023-02-07T09:39:06.952Z,30.40
2023-02-07T09:41:44.750Z,30.53
2023-02-07T09:44:28.554Z,25.73
2023-02-07T09:47:05.934Z,28.77
2023-02-07T09:49:44.554Z,26.30
2023-02-07T09:52:23.066Z,27.43
2023-02-07T09:55:01.052Z,26.90
2023-02-07T09:57:46.164Z,28.13
2023-02-07T10:00:24.353Z,29.43
2023-02-07T10:03:02.085Z,28.77
2023-02-07T10:05:45.852Z,24.63
2023-02-07T10:08:36.629Z,30.87
2023-02-07T10:11:48.724Z,30.30
2023-02-07T10:15:10.522Z,28.10
2023-02-07T10:18:05.962Z,26.70
2023-02-07T10:21:03.349Z,27.53
2023-02-07T10:23:56.087Z,30.43
2023-02-07T10:26:49.748Z,28.83
2023-02-07T10:29:59.099Z,27.60
2023-02-07T10:32:50.180Z,27.87
2023-02-07T10:35:49.389Z,27.97
2023-02-07T10:38:32.148Z,30.90
2023-02-07T10:41:11.936Z,27.30
2023-02-07T10:43:48.493Z,26.27
2023-02-07T10:46:25.080Z,30.77
2023-02-07T10:49:00.172Z,25.47
2023-02-07T10:51:42.732Z,29.57
2023-02-07T10:54:20.973Z,26.10
2023-02-07T10:57:05.174Z,26.10
2023-02-07T10:59:40.735Z,27.90
2023-02-07T11:02:44.857Z,27.87
2023-02-07T11:06:00.339Z,26.50
2023-02-07T11:08:34.848Z,26.40
2023-02-07T11:11:23.180Z,24.67
2023-02-07T11:14:04.965Z,29.40
2023-02-07T11:16:53.595Z,21.13
2023-02-07T11:22:55.615Z,29.27
2023-02-07T11:25:29.773Z,25.57
2023-02-07T11:28:03.168Z,22.27
2023-02-07T11:30:41.050Z,28.13
2023-02-07T11:33:19.954Z,30.17
2023-02-07T11:36:07.389Z,27.00
2023-02-07T11:38:44.378Z,25.67
2023-02-07T11:41:28.272Z,28.93
2023-02-07T11:44:02.931Z,30.83
2023-02-07T11:46:38.139Z,27.70
2023-02-07T11:49:25.778Z,25.20
2023-02-07T11:52:10.584Z,24.40
2023-02-07T11:54:54.835Z,27.57
2023-02-07T11:57:37.322Z,24.03
2023-02-07T12:00:18.854Z,28.33
2023-02-07T12:03:01.183Z,25.13
2023-02-07T12:05:45.945Z,26.13
2023-02-07T12:08:20.932Z,28.20
2023-02-07T12:10:57.284Z,29.43
2023-02-07T12:13:36.123Z,24.20
2023-02-07T12:16:12.345Z,26.27
2023-02-07T12:18:50.393Z,22.90
2023-02-07T12:21:26.292Z,22.33
2023-02-07T12:24:02.628Z,28.33
2023-02-07T12:26:44.638Z,25.47
2023-02-07T12:29:28.502Z,32.57
2023-02-07T12:32:27.760Z,26.83
2023-02-07T12:35:05.354Z,28.17
2023-02-07T12:37:43.106Z,23.40
2023-02-07T12:40:36.547Z,30.60
2023-02-07T12:43:25.486Z,27.77
2023-02-07T12:46:11.064Z,27.37
2023-02-07T12:48:59.139Z,26.77
2023-02-07T12:51:59.302Z,23.30
2023-02-07T12:54:57.977Z,28.50
2023-02-07T12:57:48.150Z,25.90
2023-02-07T13:00:32.880Z,24.17
2023-02-07T13:03:25.672Z,23.37
2023-02-07T13:09:41.473Z,27.87
2023-02-07T13:16:19.007Z,23.17
2023-02-07T13:19:32.250Z,22.57
2023-02-07T13:22:46.055Z,24.00
2023-02-07T13:25:47.404Z,22.33
2023-02-07T13:29:18.795Z,26.93
2023-02-07T13:32:44.542Z,48.43
2023-02-07T13:35:41.682Z,22.90
2023-02-07T13:39:08.653Z,19.37
2023-02-07T13:42:18.154Z,21.10
2023-02-07T13:45:44.189Z,23.23
2023-02-07T13:52:06.112Z,18.90
2023-02-07T13:59:23.330Z,20.37
2023-02-07T14:05:44.881Z,19.63
2023-02-07T14:08:25.653Z,21.53
2023-02-07T14:11:31.827Z,21.23
2023-02-07T14:14:21.670Z,20.67
2023-02-07T14:17:13.652Z,23.30
2023-02-07T14:19:56.711Z,24.67
2023-02-07T14:23:20.544Z,19.43
2023-02-07T14:25:58.056Z,20.10
2023-02-07T14:28:33.987Z,21.33
2023-02-07T14:31:39.849Z,30.30
2023-02-07T14:34:26.075Z,24.53
2023-02-07T14:37:30.085Z,25.60
2023-02-07T14:40:27.920Z,20.03
2023-02-07T14:43:28.234Z,21.83
2023-02-07T14:46:36.250Z,19.40
2023-02-07T14:49:42.445Z,18.70
2023-02-07T14:52:17.471Z,20.60
2023-02-07T14:54:54.022Z,18.57
2023-02-07T14:57:35.535Z,19.33
2023-02-07T15:00:23.994Z,17.67
2023-02-07T15:03:11.931Z,22.10
2023-02-07T15:06:06.887Z,19.47
2023-02-07T15:09:01.889Z,18.70
2023-02-07T15:12:18.764Z,16.80
2023-02-07T15:16:05.525Z,16.40
2023-02-07T15:19:15.334Z,18.20
2023-02-07T15:21:59.666Z,20.03
2023-02-07T15:25:01.849Z,34.07
2023-02-07T15:27:59.859Z,28.90
2023-02-07T15:31:28.657Z,18.37
2023-02-07T15:42:28.638Z,15.90
2023-02-07T15:45:23.127Z,21.50
2023-02-07T15:48:38.720Z,16.47
2023-02-07T15:58:24.991Z,19.77
2023-02-07T16:08:15.712Z,22.73
2023-02-07T16:11:27.668Z,24.43
2023-02-07T16:19:04.623Z,31.47
2023-02-07T16:22:03.410Z,18.63
2023-02-07T16:28:13.424Z,19.67
2023-02-07T16:37:55.742Z,19.80
2023-02-07T16:41:08.176Z,23.10
2023-02-07T16:47:49.921Z,21.57
2023-02-07T16:51:25.162Z,20.90
2023-02-07T16:55:28.977Z,24.63
2023-02-07T16:58:01.721Z,25.23
2023-02-07T17:01:10.363Z,17.60
2023-02-07T17:03:51.975Z,19.37
2023-02-07T17:06:41.008Z,23.80
2023-02-07T17:09:35.179Z,29.23
2023-02-07T17:12:39.000Z,32.17
2023-02-07T17:22:23.439Z,19.97
2023-02-07T17:25:09.884Z,19.57
2023-02-07T17:27:51.454Z,23.93
2023-02-07T17:33:59.564Z,18.37
2023-02-07T17:37:14.436Z,18.90
2023-02-07T17:40:14.416Z,22.77
2023-02-07T17:42:48.569Z,25.90
2023-02-07T17:45:28.311Z,23.73
2023-02-07T17:48:33.790Z,19.70
2023-02-07T17:51:14.930Z,24.90
2023-02-07T17:53:49.920Z,20.93
2023-02-07T17:56:33.117Z,23.17
2023-02-07T17:59:17.749Z,22.90
2023-02-07T18:02:07.630Z,25.57
2023-02-07T18:05:01.536Z,21.90
2023-02-07T18:08:13.246Z,21.20
2023-02-07T18:14:59.727Z,24.40
2023-02-07T18:21:18.206Z,23.00
2023-02-07T18:24:26.353Z,21.20
2023-02-07T18:27:12.195Z,19.87
2023-02-07T18:30:28.070Z,24.43
2023-02-07T18:37:15.657Z,20.77
2023-02-07T18:40:24.370Z,24.73
2023-02-07T18:43:18.210Z,24.83
2023-02-07T18:45:58.911Z,23.17
2023-02-07T18:52:03.465Z,25.67
2023-02-07T18:55:20.467Z,25.10
2023-02-07T18:58:27.561Z,23.53
2023-02-07T19:01:27.557Z,25.83
2023-02-07T19:07:19.755Z,22.77
2023-02-07T19:16:39.642Z,24.80
2023-02-07T19:19:18.114Z,23.30
2023-02-07T19:22:26.722Z,24.03
2023-02-07T19:25:38.980Z,27.53
2023-02-07T19:28:40.076Z,27.93
2023-02-07T19:31:46.337Z,29.30
2023-02-07T19:37:54.991Z,30.33
2023-02-07T19:41:04.567Z,26.57
2023-02-07T19:47:14.272Z,27.37
2023-02-07T19:50:23.236Z,30.53
2023-02-07T19:53:04.592Z,34.43
2023-02-07T19:55:41.576Z,27.20
2023-02-07T19:58:39.345Z,31.20
2023-02-07T20:01:35.015Z,27.57
2023-02-07T20:04:22.976Z,29.07
2023-02-07T20:07:15.497Z,31.23
2023-02-07T20:10:35.839Z,27.87
2023-02-07T20:13:16.717Z,33.30
2023-02-07T20:16:00.957Z,29.20
2023-02-07T20:22:14.023Z,26.87
2023-02-07T20:25:21.499Z,31.10
2023-02-07T20:28:26.330Z,29.23
2023-02-07T20:31:17.420Z,32.57
2023-02-07T20:34:12.969Z,30.53
2023-02-07T20:36:59.444Z,31.07
2023-02-07T20:43:05.689Z,30.53
2023-02-07T20:45:50.300Z,31.77
2023-02-07T20:48:34.650Z,29.70
2023-02-07T20:51:28.891Z,33.23
2023-02-07T20:54:26.717Z,28.47
2023-02-07T21:00:20.872Z,30.00
2023-02-07T21:03:30.885Z,32.13
2023-02-07T21:06:28.785Z,32.30
2023-02-07T21:09:15.161Z,34.10
2023-02-07T21:12:16.409Z,35.03
2023-02-07T21:19:13.557Z,33.20
2023-02-07T21:26:01.015Z,33.50
2023-02-07T21:29:16.356Z,29.40
2023-02-07T21:32:18.109Z,33.40
2023-02-07T21:35:32.088Z,35.27
2023-02-07T21:38:51.301Z,34.67
2023-02-07T21:41:40.367Z,33.23
2023-02-07T21:44:34.301Z,32.60
2023-02-07T21:47:12.666Z,34.00
2023-02-07T21:49:54.439Z,31.63
2023-02-07T21:52:50.665Z,30.87
2023-02-07T21:55:49.799Z,34.27
2023-02-07T21:58:42.599Z,32.13
2023-02-07T22:01:36.779Z,33.17
2023-02-07T22:04:34.749Z,34.00
2023-02-07T22:07:21.270Z,34.37
2023-02-07T22:10:15.886Z,34.53
2023-02-07T22:19:28.835Z,31.53
2023-02-07T22:22:32.009Z,35.43
2023-02-07T22:29:01.725Z,36.50
2023-02-07T22:35:17.745Z,38.13
2023-02-07T22:37:53.739Z,37.60
2023-02-07T22:40:44.621Z,42.00
2023-02-07T22:43:36.673Z,35.80
2023-02-07T22:46:41.215Z,41.63
2023-02-07T22:49:21.358Z,33.97
2023-02-07T22:52:14.076Z,36.90
2023-02-07T22:55:01.504Z,35.13
2023-02-07T23:01:17.320Z,38.40
2023-02-07T23:04:19.709Z,34.90
2023-02-07T23:07:26.955Z,32.07
2023-02-07T23:10:36.817Z,34.27
2023-02-07T23:13:49.052Z,38.23
2023-02-07T23:22:34.773Z,31.60
2023-02-07T23:28:17.994Z,37.90
2023-02-07T23:31:26.009Z,36.40
2023-02-07T23:34:23.525Z,34.00
2023-02-07T23:37:14.476Z,36.07
2023-02-07T23:40:18.802Z,35.63
2023-02-07T23:43:14.752Z,37.67
2023-02-07T23:45:53.304Z,35.80
2023-02-07T23:48:38.744Z,38.63
2023-02-07T23:51:36.521Z,39.90
2023-02-07T23:54:38.870Z,36.90
